createdAt,value
2022-12-03T00:01:30.532Z,7.63
2022-12-03T00:04:00.162Z,7.14
2022-12-03T00:06:34.335Z,7.19
2022-12-03T00:09:06.189Z,7.59
2022-12-03T00:11:35.875Z,7.79
2022-12-03T00:14:04.391Z,7.49
2022-12-03T00:16:34.365Z,7.64
2022-12-03T00:19:04.112Z,7.44
2022-12-03T00:21:32.371Z,7.41
2022-12-03T00:24:01.538Z,7.94
2022-12-03T00:26:30.054Z,7.65
2022-12-03T00:29:00.213Z,8.12
2022-12-03T00:31:30.032Z,8.06
2022-12-03T00:34:01.572Z,7.70
2022-12-03T00:36:31.373Z,7.80
2022-12-03T00:39:00.983Z,7.57
2022-12-03T00:41:30.315Z,8.09
2022-12-03T00:44:00.185Z,8.09
2022-12-03T00:46:30.209Z,8.04
2022-12-03T00:49:00.097Z,7.52
2022-12-03T00:51:30.597Z,7.82
2022-12-03T00:54:00.138Z,8.00
2022-12-03T00:56:30.340Z,7.76
2022-12-03T00:59:01.260Z,7.68
2022-12-03T01:01:30.452Z,8.17
2022-12-03T01:04:00.650Z,7.87
2022-12-03T01:06:30.542Z,8.32
2022-12-03T01:09:00.233Z,8.27
2022-12-03T01:11:39.957Z,8.19
2022-12-03T01:14:20.103Z,8.11
2022-12-03T01:16:50.028Z,8.10
2022-12-03T01:19:20.634Z,8.06
2022-12-03T01:21:52.770Z,7.62
2022-12-03T01:24:22.544Z,8.26
2022-12-03T01:26:52.140Z,7.90
2022-12-03T01:29:21.348Z,7.99
2022-12-03T01:32:08.948Z,8.29
2022-12-03T01:34:38.350Z,8.04
2022-12-03T01:37:07.530Z,7.91
2022-12-03T01:39:37.642Z,7.73
2022-12-03T01:42:08.246Z,7.52
2022-12-03T01:44:40.149Z,7.58
2022-12-03T01:47:18.343Z,7.93
2022-12-03T01:49:53.996Z,7.51
2022-12-03T01:52:31.746Z,7.58
2022-12-03T01:55:04.531Z,7.97
2022-12-03T01:57:42.865Z,7.93
2022-12-03T02:00:20.330Z,7.98
2022-12-03T02:02:58.338Z,7.92
2022-12-03T02:05:34.016Z,8.19
2022-12-03T02:08:29.702Z,7.91
2022-12-03T02:11:06.501Z,7.91
2022-12-03T02:13:37.592Z,7.83
2022-12-03T02:16:06.496Z,7.37
2022-12-03T02:18:36.254Z,7.80
2022-12-03T02:21:18.076Z,7.69
2022-12-03T02:24:11.755Z,7.72
2022-12-03T02:26:40.561Z,7.91
2022-12-03T02:29:12.439Z,7.52
2022-12-03T02:31:42.278Z,8.04
2022-12-03T02:34:12.676Z,7.63
2022-12-03T02:36:42.546Z,7.80
2022-12-03T02:39:12.285Z,8.04
2022-12-03T02:41:59.466Z,8.01
2022-12-03T02:44:30.504Z,7.80
2022-12-03T02:47:02.896Z,7.69
2022-12-03T02:49:32.888Z,7.77
2022-12-03T02:52:02.654Z,7.89
2022-12-03T02:54:30.953Z,7.69
2022-12-03T02:57:01.539Z,7.49
2022-12-03T02:59:32.406Z,7.90
2022-12-03T03:02:02.630Z,7.84
2022-12-03T03:04:31.344Z,7.64
2022-12-03T03:07:00.768Z,7.82
2022-12-03T03:09:30.842Z,7.76
2022-12-03T03:12:00.393Z,7.74
2022-12-03T03:14:29.764Z,7.94
2022-12-03T03:17:00.532Z,7.91
2022-12-03T03:19:30.296Z,7.94
2022-12-03T03:22:01.098Z,7.77
2022-12-03T03:24:32.853Z,7.86
2022-12-03T03:27:02.504Z,7.74
2022-12-03T03:29:33.574Z,7.94
2022-12-03T03:32:06.080Z,7.99
2022-12-03T03:34:34.684Z,7.67
2022-12-03T03:37:03.496Z,7.73
2022-12-03T03:39:33.705Z,7.93
2022-12-03T03:42:05.941Z,7.83
2022-12-03T03:44:34.688Z,7.71
2022-12-03T03:47:04.310Z,7.76
2022-12-03T03:49:33.511Z,7.87
2022-12-03T03:52:02.586Z,7.85
2022-12-03T03:54:32.862Z,7.93
2022-12-03T03:57:02.468Z,8.07
2022-12-03T03:59:31.115Z,7.78
2022-12-03T04:02:01.336Z,7.95
2022-12-03T04:04:34.189Z,7.92
2022-12-03T04:07:04.385Z,7.88
2022-12-03T04:09:33.700Z,8.13
2022-12-03T04:12:21.944Z,7.98
2022-12-03T04:14:50.579Z,7.91
2022-12-03T04:17:20.649Z,7.76
2022-12-03T04:19:49.566Z,7.82
2022-12-03T04:22:37.545Z,8.01
2022-12-03T04:25:26.038Z,8.02
2022-12-03T04:28:14.734Z,7.82
2022-12-03T04:30:44.670Z,7.88
2022-12-03T04:33:32.169Z,7.95
2022-12-03T04:36:01.614Z,7.88
2022-12-03T04:38:30.555Z,7.86
2022-12-03T04:41:06.696Z,8.11
2022-12-03T04:43:57.808Z,7.88
2022-12-03T04:46:28.057Z,7.86
2022-12-03T04:48:57.566Z,8.10
2022-12-03T04:51:28.460Z,8.07
2022-12-03T04:54:00.704Z,8.04
2022-12-03T04:56:30.700Z,8.04
2022-12-03T04:59:01.824Z,8.00
2022-12-03T05:01:30.622Z,7.87
2022-12-03T05:04:00.620Z,8.04
2022-12-03T05:06:29.926Z,7.87
2022-12-03T05:09:00.226Z,7.96
2022-12-03T05:11:30.573Z,7.98
2022-12-03T05:14:00.556Z,8.00
2022-12-03T05:16:30.657Z,7.97
2022-12-03T05:19:01.680Z,8.02
2022-12-03T05:21:30.733Z,8.12
2022-12-03T05:24:03.898Z,7.98
2022-12-03T05:26:33.672Z,8.14
2022-12-03T05:29:04.266Z,7.83
2022-12-03T05:31:36.221Z,7.76
2022-12-03T05:34:06.552Z,7.91
2022-12-03T05:36:36.728Z,7.82
2022-12-03T05:39:06.384Z,7.92
2022-12-03T05:41:53.652Z,7.65
2022-12-03T05:44:23.094Z,7.56
2022-12-03T05:46:52.539Z,7.43
2022-12-03T05:49:22.054Z,7.61
2022-12-03T05:51:53.768Z,7.69
2022-12-03T05:54:30.082Z,7.47
2022-12-03T05:57:00.766Z,7.94
2022-12-03T05:59:30.600Z,8.12
2022-12-03T06:02:00.417Z,8.31
2022-12-03T06:04:30.748Z,8.19
2022-12-03T06:07:05.279Z,8.19
2022-12-03T06:09:37.652Z,7.94
2022-12-03T06:12:08.166Z,8.21
2022-12-03T06:14:36.302Z,8.30
2022-12-03T06:17:05.679Z,8.26
2022-12-03T06:19:34.950Z,8.35
2022-12-03T06:22:04.588Z,8.30
2022-12-03T06:24:33.676Z,8.35
2022-12-03T06:27:02.512Z,7.98
2022-12-03T06:29:32.693Z,8.22
2022-12-03T06:32:02.170Z,8.27
2022-12-03T06:34:32.972Z,8.34
2022-12-03T06:37:02.393Z,8.80
2022-12-03T06:39:30.610Z,8.38
2022-12-03T06:42:01.674Z,8.27
2022-12-03T06:44:31.278Z,7.94
2022-12-03T06:47:00.947Z,8.44
2022-12-03T06:49:30.716Z,8.40
2022-12-03T06:52:00.497Z,8.60
2022-12-03T06:54:30.373Z,8.37
2022-12-03T06:57:01.516Z,8.58
2022-12-03T06:59:34.580Z,8.73
2022-12-03T07:02:05.564Z,8.43
2022-12-03T07:04:34.383Z,8.58
2022-12-03T07:07:04.784Z,8.02
2022-12-03T07:09:33.903Z,8.20
2022-12-03T07:12:02.653Z,8.88
2022-12-03T07:14:32.384Z,8.96
2022-12-03T07:17:04.611Z,8.61
2022-12-03T07:19:33.721Z,8.94
2022-12-03T07:22:02.491Z,8.56
2022-12-03T07:24:31.051Z,9.15
2022-12-03T07:27:01.526Z,8.80
2022-12-03T07:29:30.687Z,9.17
2022-12-03T07:32:01.014Z,9.06
2022-12-03T07:34:32.426Z,9.21
2022-12-03T07:37:01.807Z,8.75
2022-12-03T07:39:31.376Z,9.00
2022-12-03T07:42:01.590Z,9.14
2022-12-03T07:44:32.876Z,9.13
2022-12-03T07:47:02.485Z,9.43
2022-12-03T07:49:32.563Z,8.91
2022-12-03T07:52:01.734Z,9.36
2022-12-03T07:54:30.375Z,9.21
2022-12-03T07:57:02.187Z,9.23
2022-12-03T07:59:30.729Z,8.66
2022-12-03T08:02:00.440Z,8.83
2022-12-03T08:04:31.444Z,8.79
2022-12-03T08:07:00.673Z,8.48
2022-12-03T08:09:32.619Z,8.72
2022-12-03T08:12:09.748Z,9.07
2022-12-03T08:14:39.543Z,9.48
2022-12-03T08:17:14.288Z,9.52
2022-12-03T08:19:48.444Z,9.69
2022-12-03T08:22:18.125Z,9.63
2022-12-03T08:24:46.800Z,9.29
2022-12-03T08:27:20.674Z,9.80
2022-12-03T08:29:52.740Z,9.53
2022-12-03T08:32:22.642Z,9.36
2022-12-03T08:34:52.615Z,9.83
2022-12-03T08:37:22.175Z,9.19
2022-12-03T08:39:58.289Z,9.41
2022-12-03T08:42:44.774Z,9.61
2022-12-03T08:45:41.098Z,10.18
2022-12-03T08:48:32.714Z,9.79
2022-12-03T08:51:28.436Z,9.78
2022-12-03T08:54:09.303Z,10.03
2022-12-03T08:56:40.755Z,9.73
2022-12-03T08:59:31.479Z,9.99
2022-12-03T09:02:01.539Z,9.69
2022-12-03T09:04:46.374Z,9.93
2022-12-03T09:07:16.133Z,9.89
2022-12-03T09:09:46.403Z,9.83
2022-12-03T09:12:17.146Z,10.01
2022-12-03T09:14:49.139Z,9.26
2022-12-03T09:17:21.366Z,9.10
2022-12-03T09:19:50.650Z,9.17
2022-12-03T09:22:19.727Z,9.47
2022-12-03T09:24:50.007Z,9.11
2022-12-03T09:27:22.171Z,9.65
2022-12-03T09:29:52.292Z,9.36
2022-12-03T09:32:22.254Z,9.79
2022-12-03T09:34:53.776Z,10.22
2022-12-03T09:37:24.998Z,10.22
2022-12-03T09:40:03.385Z,9.65
2022-12-03T09:42:34.315Z,9.71
2022-12-03T09:45:06.232Z,9.80
2022-12-03T09:47:36.832Z,9.72
2022-12-03T09:50:06.570Z,9.75
2022-12-03T09:52:36.405Z,9.87
2022-12-03T09:55:14.135Z,10.14
2022-12-03T09:57:44.404Z,9.96
2022-12-03T10:00:19.287Z,9.82
2022-12-03T10:02:52.645Z,9.55
2022-12-03T10:05:25.240Z,9.76
2022-12-03T10:08:09.035Z,9.80
2022-12-03T10:10:42.001Z,9.58
2022-12-03T10:13:25.495Z,10.01
2022-12-03T10:16:01.952Z,10.04
2022-12-03T10:18:41.502Z,9.76
2022-12-03T10:21:22.108Z,10.47
2022-12-03T10:24:11.063Z,10.13
2022-12-03T10:26:42.675Z,10.19
2022-12-03T10:29:18.566Z,10.29
2022-12-03T10:32:11.044Z,10.78
2022-12-03T10:34:42.372Z,10.28
2022-12-03T10:37:21.227Z,10.70
2022-12-03T10:40:02.400Z,10.75
2022-12-03T10:42:35.188Z,10.69
2022-12-03T10:45:18.128Z,10.73
2022-12-03T10:48:29.836Z,10.73
2022-12-03T10:51:23.058Z,10.86
2022-12-03T10:53:54.931Z,10.27
2022-12-03T10:56:30.825Z,10.57
2022-12-03T10:59:00.612Z,10.39
2022-12-03T11:01:32.673Z,10.26
2022-12-03T11:04:06.102Z,10.34
2022-12-03T11:06:34.609Z,9.90
2022-12-03T11:09:09.096Z,9.80
2022-12-03T11:11:39.242Z,10.15
2022-12-03T11:14:13.939Z,10.30
2022-12-03T11:16:49.359Z,10.68
2022-12-03T11:19:18.797Z,10.31
2022-12-03T11:22:06.831Z,11.22
2022-12-03T11:24:41.630Z,10.91
2022-12-03T11:27:10.860Z,10.62
2022-12-03T11:29:58.855Z,11.20
2022-12-03T11:32:40.669Z,11.36
2022-12-03T11:35:24.782Z,11.24
2022-12-03T11:38:35.484Z,11.64
2022-12-03T11:41:35.879Z,10.92
2022-12-03T11:44:31.020Z,11.39
2022-12-03T11:47:14.533Z,11.36
2022-12-03T11:49:49.070Z,11.07
2022-12-03T11:52:29.839Z,11.55
2022-12-03T11:55:06.646Z,11.52
2022-12-03T11:57:40.716Z,11.22
2022-12-03T12:00:35.214Z,11.26
2022-12-03T12:03:06.228Z,11.03
2022-12-03T12:05:34.919Z,11.28
2022-12-03T12:08:05.296Z,11.08
2022-12-03T12:10:44.955Z,11.70
2022-12-03T12:13:31.941Z,11.82
2022-12-03T12:16:06.733Z,11.69
2022-12-03T12:18:55.382Z,11.86
2022-12-03T12:21:45.014Z,11.87
2022-12-03T12:24:30.767Z,12.07
2022-12-03T12:27:08.670Z,11.58
2022-12-03T12:29:40.475Z,11.95
2022-12-03T12:32:11.248Z,11.78
2022-12-03T12:34:42.643Z,11.81
2022-12-03T12:37:36.797Z,11.95
2022-12-03T12:40:17.456Z,11.77
2022-12-03T12:43:10.008Z,11.63
2022-12-03T12:45:45.129Z,11.21
2022-12-03T12:48:34.816Z,11.64
2022-12-03T12:51:14.406Z,12.18
2022-12-03T12:53:43.995Z,11.58
2022-12-03T12:56:34.373Z,11.98
2022-12-03T12:59:16.661Z,11.71
2022-12-03T13:01:55.079Z,11.86
2022-12-03T13:04:31.491Z,11.27
2022-12-03T13:07:01.374Z,10.70
2022-12-03T13:09:35.406Z,10.94
2022-12-03T13:12:08.862Z,11.48
2022-12-03T13:14:38.960Z,11.63
2022-12-03T13:17:27.539Z,11.97
2022-12-03T13:20:07.842Z,11.54
2022-12-03T13:22:39.869Z,11.58
2022-12-03T13:28:34.725Z,11.42
2022-12-03T13:31:43.168Z,11.05
2022-12-03T13:34:21.620Z,11.18
2022-12-03T13:36:57.441Z,11.40
2022-12-03T13:39:38.179Z,12.01
2022-12-03T13:42:38.775Z,12.32
2022-12-03T13:45:17.092Z,11.90
2022-12-03T13:47:46.461Z,11.90
2022-12-03T13:50:37.479Z,12.12
2022-12-03T13:53:32.842Z,11.86
2022-12-03T13:56:07.054Z,11.72
2022-12-03T13:58:37.442Z,11.22
2022-12-03T14:01:07.068Z,11.49
2022-12-03T14:03:36.695Z,11.73
2022-12-03T14:06:06.321Z,11.88
2022-12-03T14:08:35.228Z,11.81
2022-12-03T14:11:05.238Z,11.52
2022-12-03T14:13:34.810Z,12.23
2022-12-03T14:16:04.335Z,12.03
2022-12-03T14:18:33.392Z,11.85
2022-12-03T14:21:02.683Z,11.98
2022-12-03T14:23:33.968Z,12.41
2022-12-03T14:26:03.116Z,12.07
2022-12-03T14:28:32.683Z,12.23
2022-12-03T14:31:02.680Z,12.12
2022-12-03T14:33:32.456Z,11.52
2022-12-03T14:36:05.204Z,12.47
2022-12-03T14:38:34.470Z,11.86
2022-12-03T14:41:02.724Z,12.50
2022-12-03T14:43:32.801Z,12.36
2022-12-03T14:46:02.201Z,11.79
2022-12-03T14:48:31.151Z,12.03
2022-12-03T14:51:00.969Z,12.52
2022-12-03T14:53:31.551Z,12.72
2022-12-03T14:56:00.897Z,12.59
2022-12-03T14:58:30.575Z,12.35
2022-12-03T15:01:00.634Z,12.08
2022-12-03T15:03:31.588Z,12.07
2022-12-03T15:06:01.668Z,11.43
2022-12-03T15:08:31.113Z,11.59
2022-12-03T15:11:00.495Z,11.85
2022-12-03T15:13:30.684Z,12.11
2022-12-03T15:16:00.811Z,11.52
2022-12-03T15:18:35.085Z,11.83
2022-12-03T15:21:04.984Z,11.56
2022-12-03T15:23:35.508Z,11.74
2022-12-03T15:26:06.220Z,11.90
2022-12-03T15:28:35.782Z,11.94
2022-12-03T15:31:06.304Z,11.94
2022-12-03T15:33:35.191Z,11.76
2022-12-03T15:36:06.065Z,12.00
2022-12-03T15:38:34.848Z,11.71
2022-12-03T15:41:22.202Z,11.57
2022-12-03T15:43:58.774Z,11.50
2022-12-03T15:46:34.484Z,11.92
2022-12-03T15:49:05.716Z,12.06
2022-12-03T15:51:37.343Z,12.35
2022-12-03T15:54:07.575Z,12.58
2022-12-03T15:56:38.665Z,11.92
2022-12-03T15:59:08.560Z,11.76
2022-12-03T16:01:38.359Z,11.84
2022-12-03T16:04:15.132Z,12.65
2022-12-03T16:06:54.610Z,12.27
2022-12-03T16:10:51.697Z,12.37
2022-12-03T16:14:02.217Z,12.22
2022-12-03T16:16:42.709Z,11.55
2022-12-03T16:19:22.200Z,11.85
2022-12-03T16:22:14.402Z,12.05
2022-12-03T16:24:53.733Z,12.33
2022-12-03T16:27:35.475Z,12.32
2022-12-03T16:30:49.560Z,12.37
2022-12-03T16:33:55.650Z,12.14
2022-12-03T16:40:23.242Z,11.50
2022-12-03T16:43:15.364Z,11.69
2022-12-03T16:47:43.205Z,11.72
2022-12-03T16:50:29.458Z,11.57
2022-12-03T16:54:15.387Z,11.35
2022-12-03T16:56:47.836Z,11.48
2022-12-03T16:59:18.580Z,12.06
2022-12-03T17:01:49.824Z,12.15
2022-12-03T17:04:19.328Z,12.35
2022-12-03T17:06:50.731Z,12.11
2022-12-03T17:09:21.026Z,12.23
2022-12-03T17:11:55.073Z,12.67
2022-12-03T17:14:33.589Z,12.50
2022-12-03T17:17:05.389Z,11.99
2022-12-03T17:19:38.414Z,11.99
2022-12-03T17:22:11.214Z,11.50
2022-12-03T17:24:42.126Z,11.89
2022-12-03T17:27:14.674Z,11.74
2022-12-03T17:29:46.018Z,12.02
2022-12-03T17:32:17.305Z,11.61
2022-12-03T17:34:49.778Z,11.50
2022-12-03T17:37:19.893Z,11.30
2022-12-03T17:39:51.409Z,11.24
2022-12-03T17:42:22.552Z,11.34
2022-12-03T17:44:59.027Z,11.32
2022-12-03T17:47:36.625Z,11.71
2022-12-03T17:50:09.392Z,11.83
2022-12-03T17:52:41.340Z,11.49
2022-12-03T17:55:14.564Z,11.66
2022-12-03T17:57:48.298Z,11.68
2022-12-03T18:00:29.787Z,11.35
2022-12-03T18:03:07.901Z,11.76
2022-12-03T18:05:38.205Z,11.29
2022-12-03T18:08:09.127Z,11.23
2022-12-03T18:10:39.270Z,11.33
2022-12-03T18:13:13.451Z,11.41
2022-12-03T18:15:48.913Z,11.18
2022-12-03T18:18:18.756Z,11.42
2022-12-03T18:20:52.556Z,11.05
2022-12-03T18:23:35.000Z,11.69
2022-12-03T18:26:09.090Z,11.62
2022-12-03T18:28:41.095Z,11.09
2022-12-03T18:31:23.231Z,10.75
2022-12-03T18:34:09.160Z,10.93
2022-12-03T18:36:55.224Z,11.10
2022-12-03T18:39:40.868Z,11.55
2022-12-03T18:42:23.839Z,10.67
2022-12-03T18:45:09.127Z,10.98
2022-12-03T18:47:46.302Z,11.21
2022-12-03T18:50:21.745Z,10.70
2022-12-03T18:53:07.754Z,11.22
2022-12-03T18:55:46.413Z,11.15
2022-12-03T18:58:18.244Z,10.99
2022-12-03T19:00:49.324Z,11.39
2022-12-03T19:03:21.902Z,11.01
2022-12-03T19:05:55.080Z,10.62
2022-12-03T19:08:42.743Z,11.26
2022-12-03T19:11:19.357Z,11.18
2022-12-03T19:13:54.666Z,11.03
2022-12-03T19:16:47.744Z,11.78
2022-12-03T19:19:22.503Z,11.63
2022-12-03T19:22:06.262Z,11.40
2022-12-03T19:24:38.296Z,11.76
2022-12-03T19:27:10.086Z,11.29
2022-12-03T19:29:41.887Z,11.60
2022-12-03T19:32:17.653Z,11.04
2022-12-03T19:34:53.312Z,11.63
2022-12-03T19:37:50.243Z,11.72
2022-12-03T19:40:22.651Z,11.35
2022-12-03T19:43:18.955Z,11.23
2022-12-03T19:45:51.315Z,11.21
2022-12-03T19:48:33.485Z,11.14
2022-12-03T19:51:34.059Z,11.60
2022-12-03T19:54:17.743Z,10.88
2022-12-03T19:56:53.192Z,11.32
2022-12-03T19:59:35.097Z,11.68
2022-12-03T20:02:14.557Z,11.12
2022-12-03T20:04:47.805Z,10.93
2022-12-03T20:16:54.495Z,10.59
2022-12-03T20:27:25.808Z,10.76
2022-12-03T20:42:13.491Z,10.32
2022-12-03T20:44:54.319Z,10.28
2022-12-03T20:47:34.705Z,10.50
2022-12-03T20:50:11.350Z,10.86
2022-12-03T20:53:16.661Z,10.39
2022-12-03T20:55:47.762Z,10.85
2022-12-03T20:58:22.011Z,10.56
2022-12-03T21:01:22.880Z,10.44
2022-12-03T21:04:10.913Z,10.97
2022-12-03T21:06:45.149Z,11.21
2022-12-03T21:09:19.163Z,11.70
2022-12-03T21:12:06.191Z,11.19
2022-12-03T21:14:37.646Z,11.23
2022-12-03T21:17:14.188Z,11.23
2022-12-03T21:19:49.447Z,11.88
2022-12-03T21:22:38.328Z,11.42
2022-12-03T21:25:20.423Z,11.94
2022-12-03T21:27:56.869Z,11.27
2022-12-03T21:30:46.056Z,11.76
2022-12-03T21:33:18.705Z,11.73
2022-12-03T21:36:01.367Z,11.50
2022-12-03T21:38:37.759Z,11.66
2022-12-03T21:41:09.496Z,11.75
2022-12-03T21:43:42.997Z,11.89
2022-12-03T21:47:11.392Z,11.64
2022-12-03T21:49:11.880Z,11.79
2022-12-03T21:51:46.956Z,11.42
2022-12-03T21:54:22.309Z,11.43
2022-12-03T21:57:13.848Z,11.62
2022-12-03T22:00:11.837Z,11.50
2022-12-03T22:02:48.101Z,11.23
2022-12-03T22:05:21.720Z,11.81
2022-12-03T22:08:11.854Z,11.55
2022-12-03T22:10:46.650Z,11.61
2022-12-03T22:13:18.075Z,12.06
2022-12-03T22:15:47.695Z,11.92
2022-12-03T22:18:22.481Z,11.85
2022-12-03T22:20:59.009Z,11.76
2022-12-03T22:23:36.687Z,12.03
2022-12-03T22:26:17.130Z,11.61
2022-12-03T22:28:49.417Z,11.69
2022-12-03T22:31:19.868Z,11.64
2022-12-03T22:33:53.634Z,11.58
2022-12-03T22:36:27.504Z,11.63
2022-12-03T22:39:31.254Z,10.26
2022-12-03T22:42:07.620Z,10.50
2022-12-03T22:44:39.320Z,10.34
2022-12-03T22:47:10.654Z,10.54
2022-12-03T22:49:41.663Z,10.27
2022-12-03T22:52:13.239Z,10.44
2022-12-03T22:54:49.001Z,10.13
2022-12-03T22:57:23.126Z,10.14
2022-12-03T23:00:09.934Z,10.07
2022-12-03T23:02:42.860Z,10.20
2022-12-03T23:05:18.680Z,9.97
2022-12-03T23:07:53.994Z,9.83
2022-12-03T23:11:02.779Z,9.59
2022-12-03T23:13:41.569Z,9.67
2022-12-03T23:16:33.239Z,9.61
2022-12-03T23:19:05.597Z,9.66
2022-12-03T23:21:39.620Z,9.54
2022-12-03T23:24:11.565Z,9.53
2022-12-03T23:26:45.367Z,9.02
2022-12-03T23:29:15.365Z,9.21
2022-12-03T23:31:53.724Z,9.16
2022-12-03T23:34:25.210Z,9.51
2022-12-03T23:37:06.321Z,9.21
2022-12-03T23:39:41.344Z,9.29
2022-12-03T23:42:14.995Z,9.33
2022-12-03T23:44:50.539Z,9.08
2022-12-03T23:47:27.311Z,9.33
2022-12-03T23:50:02.843Z,8.88
2022-12-03T23:52:37.041Z,8.62
2022-12-03T23:55:09.459Z,9.19
2022-12-03T23:57:42.813Z,9.35
